Time,TemperatureF,DewpointF,PressureIn,WindDirection,WindDirectionDegrees,WindSpeedMPH,WindSpeedGustMPH,Humidity,HourlyPrecipIn,Conditions,Clouds,dailyrainin,SoftwareType,DateUTC
2013-05-28 00:03:00,60.0,51.0,-100.00,South,190,3.0,-999.0,71,0.00,,,0.00,,2013-05-28 04:03:00,
2013-05-28 00:13:00,60.0,51.0,-100.00,South,190,3.0,-999.0,71,0.00,,,0.00,,2013-05-28 04:13:00,
2013-05-28 00:53:00,61.0,50.0,-100.00,South,175,2.0,-999.0,67,0.00,,,0.00,,2013-05-28 04:53:00,
2013-05-28 01:02:00,61.0,50.0,-100.00,South,175,2.0,-999.0,67,0.00,,,0.00,,2013-05-28 05:02:00,
2013-05-28 01:12:00,61.0,50.0,-100.00,South,175,2.0,-999.0,67,0.00,,,0.00,,2013-05-28 05:12:00,
2013-05-28 01:52:00,61.0,49.0,-100.00,SSW,198,3.0,-999.0,65,0.00,,,0.00,,2013-05-28 05:52:00,
2013-05-28 02:02:00,61.0,49.0,-100.00,SSW,198,3.0,-999.0,65,0.00,,,0.00,,2013-05-28 06:02:00,
2013-05-28 02:12:00,61.0,49.0,-100.00,SSW,198,3.0,-999.0,65,0.00,,,0.00,,2013-05-28 06:12:00,
2013-05-28 02:52:00,60.0,50.0,-100.00,South,170,3.0,-999.0,70,0.00,,,0.00,,2013-05-28 06:52:00,
2013-05-28 03:02:00,60.0,50.0,-100.00,South,170,3.0,-999.0,70,0.00,,,0.00,,2013-05-28 07:02:00,
2013-05-28 03:11:00,60.0,50.0,-100.00,South,170,3.0,-999.0,70,0.00,,,0.00,,2013-05-28 07:11:00,
2013-05-28 03:52:00,62.0,51.0,-100.00,SSW,198,2.0,-999.0,67,0.00,,,0.00,,2013-05-28 07:52:00,
2013-05-28 04:02:00,62.0,51.0,-100.00,SSW,198,2.0,-999.0,67,0.00,,,0.00,,2013-05-28 08:02:00,
2013-05-28 04:12:00,62.0,51.0,-100.00,SSW,198,2.0,-999.0,67,0.00,,,0.00,,2013-05-28 08:12:00,
2013-05-28 04:52:00,60.0,55.0,-100.00,SSE,164,5.0,-999.0,85,0.00,,,0.00,,2013-05-28 08:52:00,
2013-05-28 05:01:00,60.0,55.0,-100.00,SSE,164,5.0,-999.0,85,0.00,,,0.00,,2013-05-28 09:01:00,
2013-05-28 05:11:00,60.0,55.0,-100.00,SSE,164,5.0,-999.0,85,0.00,,,0.00,,2013-05-28 09:11:00,
2013-05-28 05:54:00,58.0,54.0,-100.00,South,170,4.0,-999.0,87,0.00,,,0.00,,2013-05-28 09:54:00,
2013-05-28 06:03:00,58.0,54.0,-100.00,South,170,4.0,-999.0,87,0.00,,,0.00,,2013-05-28 10:03:00,
2013-05-28 06:12:00,58.0,54.0,-100.00,South,170,4.0,-999.0,87,0.00,,,0.00,,2013-05-28 10:12:00,
2013-05-28 06:53:00,60.0,56.0,-100.00,SSE,166,4.0,-999.0,87,0.00,,,0.00,,2013-05-28 10:53:00,
2013-05-28 07:02:00,60.0,56.0,-100.00,SSE,166,4.0,-999.0,87,0.00,,,0.00,,2013-05-28 11:02:00,
2013-05-28 07:12:00,60.0,56.0,-100.00,SSE,166,4.0,-999.0,87,0.00,,,0.00,,2013-05-28 11:12:00,
2013-05-28 07:52:00,60.0,57.0,-100.00,South,189,5.0,-999.0,90,0.00,,,0.00,,2013-05-28 11:52:00,
2013-05-28 08:02:00,60.0,57.0,-100.00,South,189,5.0,-999.0,90,0.00,,,0.00,,2013-05-28 12:02:00,
2013-05-28 08:11:00,60.0,57.0,-100.00,South,189,5.0,-999.0,90,0.00,,,0.00,,2013-05-28 12:11:00,
2013-05-28 08:52:00,61.0,58.0,-100.00,SSW,210,5.0,-999.0,90,0.00,,,0.00,,2013-05-28 12:52:00,
2013-05-28 09:01:00,61.0,58.0,-100.00,SSW,210,5.0,-999.0,90,0.00,,,0.00,,2013-05-28 13:01:00,
2013-05-28 09:11:00,61.0,58.0,-100.00,SSW,210,5.0,-999.0,90,0.00,,,0.00,,2013-05-28 13:11:00,
2013-05-28 09:52:00,60.0,55.0,-100.00,SSW,207,7.0,-999.0,85,0.00,,,0.00,,2013-05-28 13:52:00,
2013-05-28 10:02:00,60.0,55.0,-100.00,SSW,207,7.0,-999.0,85,0.00,,,0.00,,2013-05-28 14:02:00,
2013-05-28 10:12:00,60.0,55.0,-100.00,SSW,207,7.0,-999.0,85,0.00,,,0.00,,2013-05-28 14:12:00,
2013-05-28 10:52:00,62.0,56.0,-100.00,SSW,200,7.0,-999.0,80,0.00,,,0.00,,2013-05-28 14:52:00,
2013-05-28 11:01:00,62.0,56.0,-100.00,SSW,200,7.0,-999.0,80,0.00,,,0.00,,2013-05-28 15:01:00,
2013-05-28 11:11:00,62.0,56.0,-100.00,SSW,200,7.0,-999.0,80,0.00,,,0.00,,2013-05-28 15:11:00,
2013-05-28 11:53:00,61.0,56.0,-100.00,SSE,151,7.0,-999.0,84,0.00,,,0.00,,2013-05-28 15:53:00,
2013-05-28 12:03:00,61.0,56.0,-100.00,SSE,151,7.0,-999.0,84,0.00,,,0.00,,2013-05-28 16:03:00,
2013-05-28 12:13:00,61.0,56.0,-100.00,SSE,151,7.0,-999.0,84,0.00,,,0.00,,2013-05-28 16:13:00,
2013-05-28 12:53:00,61.0,61.0,-100.00,SSW,213,3.0,-999.0,100,0.01,,,0.01,,2013-05-28 16:53:00,
2013-05-28 13:02:00,61.0,61.0,-100.00,SSW,213,3.0,-999.0,100,0.01,,,0.01,,2013-05-28 17:02:00,
2013-05-28 13:12:00,61.0,61.0,-100.00,SSW,213,3.0,-999.0,100,0.01,,,0.01,,2013-05-28 17:12:00,
2013-05-28 13:52:00,61.0,61.0,-100.00,South,172,8.0,-999.0,100,0.03,,,0.04,,2013-05-28 17:52:00,
2013-05-28 14:01:00,61.0,61.0,-100.00,South,172,8.0,-999.0,100,0.03,,,0.04,,2013-05-28 18:01:00,
2013-05-28 14:11:00,61.0,61.0,-100.00,South,172,8.0,-999.0,100,0.03,,,0.04,,2013-05-28 18:11:00,
2013-05-28 14:52:00,60.0,60.0,-100.00,SSE,158,9.0,-999.0,100,0.00,,,0.04,,2013-05-28 18:52:00,
2013-05-28 15:01:00,60.0,60.0,-100.00,SSE,158,9.0,-999.0,100,0.00,,,0.04,,2013-05-28 19:01:00,
2013-05-28 15:11:00,60.0,60.0,-100.00,SSE,158,9.0,-999.0,100,0.00,,,0.04,,2013-05-28 19:11:00,
2013-05-28 15:52:00,60.0,57.0,-100.00,SSE,162,9.0,-999.0,89,0.00,,,0.04,,2013-05-28 19:52:00,
2013-05-28 16:02:00,60.0,57.0,-100.00,SSE,162,9.0,-999.0,89,0.00,,,0.04,,2013-05-28 20:02:00,
2013-05-28 16:11:00,60.0,57.0,-100.00,SSE,162,9.0,-999.0,89,0.00,,,0.04,,2013-05-28 20:11:00,
2013-05-28 16:52:00,63.0,58.0,-100.00,South,169,8.0,-999.0,84,0.00,,,0.04,,2013-05-28 20:52:00,
2013-05-28 17:02:00,63.0,58.0,-100.00,South,169,8.0,-999.0,84,0.00,,,0.04,,2013-05-28 21:02:00,
2013-05-28 17:11:00,63.0,58.0,-100.00,South,169,8.0,-999.0,84,0.00,,,0.04,,2013-05-28 21:11:00,
2013-05-28 17:53:00,63.0,58.0,-100.00,South,184,9.0,-999.0,84,0.00,,,0.04,,2013-05-28 21:53:00,
2013-05-28 18:02:00,63.0,58.0,-100.00,South,184,9.0,-999.0,84,0.00,,,0.04,,2013-05-28 22:02:00,
2013-05-28 18:13:00,63.0,58.0,-100.00,South,184,9.0,-999.0,84,0.00,,,0.04,,2013-05-28 22:13:00,
2013-05-28 18:52:00,63.0,56.0,-100.00,SSW,192,12.0,-999.0,79,0.00,,,0.04,,2013-05-28 22:52:00,
2013-05-28 19:02:00,63.0,56.0,-100.00,SSW,192,12.0,-999.0,79,0.00,,,0.04,,2013-05-28 23:02:00,
2013-05-28 19:11:00,63.0,56.0,-100.00,SSW,192,12.0,-999.0,79,0.00,,,0.04,,2013-05-28 23:11:00,
2013-05-28 19:52:00,62.0,55.0,-100.00,SSW,193,12.0,-999.0,78,0.00,,,0.04,,2013-05-28 23:52:00,
2013-05-28 20:02:00,62.0,55.0,-100.00,SSW,193,12.0,-999.0,78,0.00,,,0.04,,2013-05-29 00:02:00,
2013-05-28 20:11:00,62.0,55.0,-100.00,SSW,193,12.0,-999.0,78,0.00,,,0.04,,2013-05-29 00:11:00,
2013-05-28 20:52:00,63.0,56.0,-100.00,SSW,194,9.0,-999.0,78,-99.99,,,0.00,,2013-05-29 00:52:00,
2013-05-28 21:01:00,63.0,56.0,-100.00,SSW,194,9.0,-999.0,78,-99.99,,,0.00,,2013-05-29 01:01:00,
2013-05-28 21:11:00,63.0,56.0,-100.00,SSW,194,9.0,-999.0,78,-99.99,,,0.00,,2013-05-29 01:11:00,
2013-05-28 21:52:00,61.0,53.0,-100.00,SSW,198,12.0,-999.0,76,0.01,,,0.01,,2013-05-29 01:52:00,
2013-05-28 22:02:00,61.0,53.0,-100.00,SSW,198,12.0,-999.0,76,0.01,,,0.01,,2013-05-29 02:02:00,
2013-05-28 22:12:00,61.0,53.0,-100.00,SSW,198,12.0,-999.0,76,0.01,,,0.01,,2013-05-29 02:12:00,
2013-05-28 22:52:00,63.0,54.0,-100.00,SSE,166,10.0,-999.0,72,0.00,,,0.01,,2013-05-29 02:52:00,
2013-05-28 23:02:00,63.0,54.0,-100.00,SSE,166,10.0,-999.0,72,0.00,,,0.01,,2013-05-29 03:02:00,
2013-05-28 23:12:00,63.0,54.0,-100.00,SSE,166,10.0,-999.0,72,0.00,,,0.01,,2013-05-29 03:12:00,
2013-05-28 23:53:00,63.0,55.0,-100.00,SSW,198,11.0,-999.0,74,0.00,,,0.01,,2013-05-29 03:53:00,